Time;durP1;ratioP1;P1;durP2;ratioP2;P2;SDS_P1;SDS_P2;PMS_P1;PMS_P2;Temp;Humidity;BMP_temperature;BMP_pressure;BME280_temperature;BME280_humidity;BME280_pressure;Samples;Min_cycle;Max_cycle;Signal;HPM_P1;HPM_P2
2021/10/23 00:00:56;;;;;;;13.80;6.68;;;11.80;81.20;;;;;;5085151;28;20051;-78
2021/10/23 00:03:21;;;;;;;13.40;5.95;;;11.80;81.30;;;;;;5083101;28;20017;-77
2021/10/23 00:05:47;;;;;;;17.45;9.13;;;11.80;81.30;;;;;;5077260;28;20036;-77
2021/10/23 00:08:13;;;;;;;17.48;9.23;;;11.80;81.50;;;;;;5077174;28;20383;-77
2021/10/23 00:10:39;;;;;;;16.85;9.48;;;11.80;81.40;;;;;;5077378;28;20025;-77
2021/10/23 00:13:05;;;;;;;17.33;8.93;;;11.80;81.60;;;;;;5075747;28;20619;-77
2021/10/23 00:15:31;;;;;;;15.15;8.88;;;11.80;81.50;;;;;;5083303;28;20157;-77
2021/10/23 00:17:57;;;;;;;13.57;8.13;;;11.80;81.50;;;;;;5084449;28;20025;-76
2021/10/23 00:20:23;;;;;;;13.25;8.13;;;11.80;81.50;;;;;;5075584;28;20078;-77
2021/10/23 00:22:49;;;;;;;14.18;7.15;;;11.80;81.50;;;;;;5077365;28;20387;-76
2021/10/23 00:25:15;;;;;;;9.93;6.07;;;11.70;81.30;;;;;;5095018;28;20032;-76
2021/10/23 00:27:41;;;;;;;11.98;5.55;;;11.70;81.20;;;;;;5084093;28;20078;-76
2021/10/23 00:30:09;;;;;;;8.27;5.10;;;11.70;81.20;;;;;;5076076;28;20035;-76
2021/10/23 00:32:36;;;;;;;9.00;4.53;;;11.70;81.20;;;;;;5088387;28;20085;-76
2021/10/23 00:35:03;;;;;;;10.95;5.35;;;11.70;81.20;;;;;;5090650;28;20031;-76
2021/10/23 00:37:29;;;;;;;11.82;5.22;;;11.60;81.60;;;;;;5076702;28;20056;-76
2021/10/23 00:39:54;;;;;;;10.65;5.75;;;11.60;81.50;;;;;;5076118;28;20467;-76
2021/10/23 00:42:20;;;;;;;10.95;6.07;;;11.50;82.10;;;;;;5077052;28;20017;-76
2021/10/23 00:44:46;;;;;;;11.82;5.60;;;11.50;81.60;;;;;;5077434;28;20020;-76
2021/10/23 00:47:17;;;;;;;10.02;5.95;;;11.40;81.50;;;;;;5077056;28;20020;-76
2021/10/23 00:49:45;;;;;;;8.48;5.57;;;11.40;81.50;;;;;;5077284;28;20028;-76
2021/10/23 00:52:10;;;;;;;13.35;6.35;;;11.30;81.40;;;;;;5076471;28;20029;-76
2021/10/23 00:54:37;;;;;;;12.57;6.95;;;11.20;81.30;;;;;;5076872;28;20032;-76
2021/10/23 00:57:05;;;;;;;11.98;6.13;;;11.20;81.30;;;;;;5076936;28;20406;-76
2021/10/23 00:59:32;;;;;;;11.38;6.18;;;11.10;81.30;;;;;;5077150;28;20039;-76
2021/10/23 01:01:59;;;;;;;10.25;5.55;;;11.00;81.20;;;;;;5076737;28;20059;-76
2021/10/23 01:04:25;;;;;;;10.32;5.18;;;10.90;81.00;;;;;;5076903;28;20021;-76
2021/10/23 01:06:52;;;;;;;9.00;4.57;;;10.90;80.90;;;;;;5076581;28;20024;-76
2021/10/23 01:09:19;;;;;;;10.20;4.78;;;10.80;81.00;;;;;;5077496;28;20028;-76
2021/10/23 01:11:45;;;;;;;6.68;3.90;;;10.70;81.00;;;;;;5080528;28;20027;-76
2021/10/23 01:14:17;;;;;;;8.23;4.15;;;10.60;81.00;;;;;;5080432;28;20025;-76
2021/10/23 01:16:44;;;;;;;6.25;3.47;;;10.50;80.90;;;;;;5094109;28;20387;-76
2021/10/23 01:19:11;;;;;;;7.25;3.58;;;10.40;80.70;;;;;;5080506;28;20025;-76
2021/10/23 01:21:39;;;;;;;7.57;3.15;;;10.40;80.90;;;;;;5080153;28;20029;-76
2021/10/23 01:24:07;;;;;;;7.25;3.05;;;10.30;81.00;;;;;;5088456;28;20024;-76
2021/10/23 01:26:34;;;;;;;7.05;3.10;;;10.20;81.00;;;;;;5096580;28;20514;-77
2021/10/23 01:29:00;;;;;;;5.93;2.90;;;10.10;81.00;;;;;;5080295;28;20077;-77
2021/10/23 01:31:29;;;;;;;5.00;2.88;;;10.00;81.10;;;;;;5083428;28;20091;-76
2021/10/23 01:33:56;;;;;;;6.35;2.83;;;10.00;81.10;;;;;;5100261;28;20031;-76
2021/10/23 01:36:22;;;;;;;6.93;2.47;;;9.90;81.20;;;;;;5081353;28;20410;-76
2021/10/23 01:38:48;;;;;;;7.38;2.72;;;9.90;81.20;;;;;;5080075;28;20113;-77
2021/10/23 01:41:15;;;;;;;7.45;2.75;;;9.80;81.30;;;;;;5079975;28;20019;-77
2021/10/23 01:43:41;;;;;;;5.85;2.95;;;9.70;81.30;;;;;;5078971;28;20029;-76
2021/10/23 01:46:08;;;;;;;5.47;2.90;;;9.60;81.30;;;;;;5079870;28;20082;-77
2021/10/23 01:48:35;;;;;;;6.60;2.90;;;9.60;81.20;;;;;;5080087;28;20504;-77
2021/10/23 01:51:02;;;;;;;7.85;3.22;;;9.50;81.30;;;;;;5079566;28;20398;-77
2021/10/23 01:53:30;;;;;;;5.10;2.72;;;9.50;81.40;;;;;;5078470;28;20028;-76
2021/10/23 01:55:56;;;;;;;6.13;2.70;;;9.40;81.20;;;;;;5079603;28;20019;-76
2021/10/23 01:58:22;;;;;;;5.80;3.25;;;9.40;81.30;;;;;;5079873;28;20024;-76
2021/10/23 02:00:48;;;;;;;7.32;3.47;;;9.30;81.30;;;;;;5080022;28;20383;-76
2021/10/23 02:03:14;;;;;;;8.15;3.45;;;9.20;81.40;;;;;;5079608;28;20467;-76
2021/10/23 02:05:39;;;;;;;6.03;2.70;;;9.20;81.40;;;;;;5079686;28;20025;-76
2021/10/23 02:08:06;;;;;;;6.82;2.92;;;9.10;81.30;;;;;;5079523;28;20111;-76
2021/10/23 02:10:32;;;;;;;7.28;3.10;;;9.10;81.40;;;;;;5078122;28;20020;-76
2021/10/23 02:12:58;;;;;;;7.20;2.60;;;9.00;81.40;;;;;;5079313;28;20028;-75
2021/10/23 02:15:24;;;;;;;5.85;2.72;;;9.00;81.40;;;;;;5084759;28;20390;-76
2021/10/23 02:17:50;;;;;;;8.15;3.22;;;8.90;81.40;;;;;;5087664;28;20047;-76
2021/10/23 02:20:16;;;;;;;7.40;3.30;;;8.90;81.40;;;;;;5078948;28;20025;-76
2021/10/23 02:22:42;;;;;;;5.38;2.83;;;8.80;81.40;;;;;;5079405;28;20491;-76
2021/10/23 02:25:10;;;;;;;7.85;3.13;;;8.80;81.50;;;;;;5095009;28;20046;-76
2021/10/23 02:27:37;;;;;;;7.68;3.15;;;8.70;81.60;;;;;;5086853;28;20035;-75
2021/10/23 02:30:05;;;;;;;6.55;3.30;;;8.70;81.60;;;;;;5079094;28;20028;-76
2021/10/23 02:32:32;;;;;;;8.20;3.70;;;8.60;81.60;;;;;;5091228;28;20137;-76
2021/10/23 02:34:58;;;;;;;6.15;3.45;;;8.60;81.60;;;;;;5092380;28;20071;-76
2021/10/23 02:37:24;;;;;;;8.00;3.30;;;8.60;81.70;;;;;;5077474;28;20040;-76
2021/10/23 02:39:50;;;;;;;5.70;3.15;;;8.50;81.80;;;;;;5077666;28;20465;-76
2021/10/23 02:42:16;;;;;;;6.53;3.17;;;8.50;81.70;;;;;;5078865;28;20012;-76
2021/10/23 02:44:42;;;;;;;6.13;3.30;;;8.40;81.70;;;;;;5079121;28;20024;-76
2021/10/23 02:47:08;;;;;;;5.90;3.88;;;8.40;81.70;;;;;;5078793;28;20070;-76
2021/10/23 02:49:34;;;;;;;5.85;2.97;;;8.40;81.70;;;;;;5079016;28;20028;-76
2021/10/23 02:52:00;;;;;;;7.53;3.42;;;8.30;81.70;;;;;;5078424;28;20016;-76
2021/10/23 02:54:26;;;;;;;6.75;3.60;;;8.30;81.60;;;;;;5078728;28;20028;-76
2021/10/23 02:56:53;;;;;;;7.72;3.42;;;8.30;81.60;;;;;;5078582;28;20020;-76
2021/10/23 02:59:19;;;;;;;8.25;3.35;;;8.20;81.80;;;;;;5078729;28;20028;-76
2021/10/23 03:01:45;;;;;;;7.95;4.00;;;8.20;82.00;;;;;;5077215;28;20021;-76
2021/10/23 03:04:11;;;;;;;6.63;3.65;;;8.20;82.00;;;;;;5078470;28;20029;-76
2021/10/23 03:06:36;;;;;;;7.20;3.40;;;8.20;82.00;;;;;;5078146;28;20438;-76
2021/10/23 03:09:02;;;;;;;8.80;3.58;;;8.10;81.90;;;;;;5077004;28;20035;-76
2021/10/23 03:11:28;;;;;;;8.10;2.78;;;8.10;82.00;;;;;;5078293;28;20032;-76
2021/10/23 03:13:56;;;;;;;8.05;3.40;;;8.00;82.00;;;;;;5078208;28;20023;-76
2021/10/23 03:16:21;;;;;;;5.28;2.95;;;8.00;82.00;;;;;;5091911;28;20043;-76
2021/10/23 03:18:47;;;;;;;7.03;3.30;;;8.00;82.00;;;;;;5078149;28;20031;-76
2021/10/23 03:21:13;;;;;;;7.75;3.05;;;7.90;82.00;;;;;;5077958;28;20589;-76
2021/10/23 03:23:39;;;;;;;6.32;3.10;;;7.90;82.00;;;;;;5082490;28;20494;-76
2021/10/23 03:26:05;;;;;;;6.80;2.90;;;7.90;82.10;;;;;;5098361;28;20024;-76
2021/10/23 03:28:30;;;;;;;6.20;2.80;;;7.80;82.10;;;;;;5077964;28;20105;-76
2021/10/23 03:30:56;;;;;;;5.57;3.00;;;7.80;82.30;;;;;;5077920;28;20171;-76
2021/10/23 03:33:22;;;;;;;5.93;2.90;;;7.80;82.20;;;;;;5096711;28;20028;-76
2021/10/23 03:35:48;;;;;;;9.02;3.20;;;7.80;82.30;;;;;;5083866;28;20434;-75
2021/10/23 03:38:13;;;;;;;9.02;3.67;;;7.80;82.20;;;;;;5078046;28;20059;-76
2021/10/23 03:40:39;;;;;;;10.32;4.28;;;7.70;82.10;;;;;;5077624;28;20016;-76
2021/10/23 03:43:05;;;;;;;9.60;4.82;;;7.70;82.10;;;;;;5077827;28;20031;-76
2021/10/23 03:45:31;;;;;;;11.80;5.55;;;7.60;82.20;;;;;;5077612;28;20025;-76
2021/10/23 03:47:57;;;;;;;8.38;4.28;;;7.60;82.20;;;;;;5077860;28;20073;-76
2021/10/23 03:50:22;;;;;;;8.80;4.43;;;7.60;82.30;;;;;;5077286;28;20433;-76
2021/10/23 03:52:48;;;;;;;8.95;4.18;;;7.60;82.30;;;;;;5077761;28;20020;-76
2021/10/23 03:55:14;;;;;;;8.95;3.95;;;7.50;82.30;;;;;;5077375;28;20020;-76
2021/10/23 03:57:40;;;;;;;6.68;3.53;;;7.50;82.40;;;;;;5077793;28;20082;-76
2021/10/23 04:00:07;;;;;;;5.63;3.28;;;7.50;82.40;;;;;;5077463;28;20028;-76
2021/10/23 04:02:33;;;;;;;5.93;2.90;;;7.40;82.40;;;;;;5077520;28;20028;-76
2021/10/23 04:04:59;;;;;;;6.28;3.33;;;7.40;82.30;;;;;;5077180;28;20108;-76
2021/10/23 04:07:24;;;;;;;6.47;2.92;;;7.40;82.20;;;;;;5077486;28;20024;-76
2021/10/23 04:09:50;;;;;;;6.13;2.95;;;7.40;82.50;;;;;;5077186;28;20017;-76
2021/10/23 04:12:16;;;;;;;5.43;3.20;;;7.40;82.70;;;;;;5077362;28;20082;-76
2021/10/23 04:14:42;;;;;;;8.95;5.07;;;7.40;82.70;;;;;;5077442;28;20029;-76
2021/10/23 04:17:08;;;;;;;9.88;6.45;;;7.40;83.00;;;;;;5090687;28;20529;-76
2021/10/23 04:19:33;;;;;;;14.13;6.75;;;7.40;83.30;;;;;;5077399;28;20021;-76
2021/10/23 04:22:00;;;;;;;10.70;5.30;;;7.40;82.90;;;;;;5076984;28;20029;-76
2021/10/23 04:24:26;;;;;;;12.73;5.50;;;7.40;82.60;;;;;;5088384;28;20042;-76
2021/10/23 04:26:52;;;;;;;7.63;4.25;;;7.30;82.60;;;;;;5090990;28;20020;-76
2021/10/23 04:29:21;;;;;;;6.20;3.80;;;7.30;82.60;;;;;;5077268;28;20017;-76
2021/10/23 04:31:47;;;;;;;5.95;3.90;;;7.30;82.60;;;;;;5084389;28;20631;-76
2021/10/23 04:34:13;;;;;;;6.90;3.58;;;7.30;82.70;;;;;;5096407;28;20024;-76
2021/10/23 04:36:39;;;;;;;10.00;4.28;;;7.20;82.60;;;;;;5075411;28;20049;-76
2021/10/23 04:39:05;;;;;;;9.10;5.13;;;7.20;82.40;;;;;;5076922;28;20871;-76
2021/10/23 04:41:31;;;;;;;9.15;5.50;;;7.20;82.50;;;;;;5077569;28;20470;-76
2021/10/23 04:43:57;;;;;;;10.32;5.50;;;7.10;82.50;;;;;;5077209;28;20029;-76
2021/10/23 04:46:22;;;;;;;12.25;7.35;;;7.10;82.40;;;;;;5080298;28;20035;-76
2021/10/23 04:48:48;;;;;;;9.50;6.40;;;7.10;83.50;;;;;;5081031;28;20062;-76
2021/10/23 04:51:14;;;;;;;10.30;6.53;;;7.10;83.50;;;;;;5080961;28;20021;-76
2021/10/23 04:53:40;;;;;;;10.35;5.80;;;7.00;82.90;;;;;;5080672;28;20028;-77
2021/10/23 04:56:05;;;;;;;12.82;5.65;;;7.00;82.80;;;;;;5081130;28;20016;-77
2021/10/23 04:58:32;;;;;;;8.25;5.38;;;7.00;82.80;;;;;;5079643;28;20017;-77
2021/10/23 05:00:59;;;;;;;8.65;5.20;;;7.00;82.80;;;;;;5081126;28;20052;-76
2021/10/23 05:03:27;;;;;;;7.88;4.38;;;6.90;82.70;;;;;;5080767;28;20048;-77
2021/10/23 05:05:53;;;;;;;9.73;4.40;;;6.90;82.70;;;;;;5080675;28;20039;-76
2021/10/23 05:08:19;;;;;;;9.98;4.80;;;6.80;82.80;;;;;;5080607;28;20091;-76
2021/10/23 05:10:45;;;;;;;8.45;4.85;;;6.80;83.00;;;;;;5080678;28;20076;-76
2021/10/23 05:13:11;;;;;;;9.73;6.20;;;6.80;83.00;;;;;;5080347;28;20052;-76
2021/10/23 05:15:37;;;;;;;9.55;6.28;;;6.70;83.10;;;;;;5087743;28;20450;-76
2021/10/23 05:18:02;;;;;;;11.05;6.60;;;6.70;83.10;;;;;;5087011;28;20052;-76
2021/10/23 05:20:28;;;;;;;16.55;6.60;;;6.70;83.10;;;;;;5080338;28;20103;-76
2021/10/23 05:22:54;;;;;;;13.27;7.57;;;6.60;83.10;;;;;;5080526;28;20036;-76
2021/10/23 05:25:20;;;;;;;11.02;7.10;;;6.60;83.10;;;;;;5098994;28;20020;-76
2021/10/23 05:27:46;;;;;;;11.25;6.45;;;6.50;83.10;;;;;;5100621;28;20024;-76
2021/10/23 05:30:12;;;;;;;11.35;6.22;;;6.50;83.20;;;;;;5100649;28;20035;-76
2021/10/23 05:32:38;;;;;;;9.80;6.20;;;6.50;83.30;;;;;;5099578;28;20429;-77
2021/10/23 05:35:04;;;;;;;8.43;4.53;;;6.50;83.30;;;;;;5079923;28;20036;-77
2021/10/23 05:37:30;;;;;;;10.43;4.93;;;6.40;83.20;;;;;;5080219;28;20048;-77
2021/10/23 05:39:56;;;;;;;7.72;4.28;;;6.40;83.10;;;;;;5080188;28;20584;-77
2021/10/23 05:42:21;;;;;;;7.07;3.83;;;6.30;83.10;;;;;;5079916;28;20013;-76
2021/10/23 05:44:47;;;;;;;6.70;3.97;;;6.30;83.20;;;;;;5080080;28;20060;-77
2021/10/23 05:47:13;;;;;;;6.07;3.70;;;6.30;83.10;;;;;;5079979;28;20021;-77
2021/10/23 05:49:40;;;;;;;7.30;3.28;;;6.30;83.20;;;;;;5095972;28;20026;-76
2021/10/23 05:52:06;;;;;;;7.30;3.33;;;6.20;83.20;;;;;;5103733;28;20047;-76
2021/10/23 05:54:41;;;;;;;5.78;4.00;;;6.20;83.20;;;;;;5079718;28;20024;-76
2021/10/23 05:57:08;;;;;;;6.05;3.70;;;6.20;83.20;;;;;;5079468;28;20031;-76
2021/10/23 05:59:43;;;;;;;7.20;3.85;;;6.10;83.10;;;;;;5079905;28;20029;-76
2021/10/23 06:04:49;;;;;;;5.18;3.50;;;6.10;83.20;;;;;;5079838;28;20491;-76
2021/10/23 06:07:16;;;;;;;6.75;3.80;;;6.00;83.20;;;;;;5086632;28;20020;-76
2021/10/23 06:09:43;;;;;;;8.32;4.45;;;6.00;83.30;;;;;;5085865;28;20388;-76
2021/10/23 06:12:09;;;;;;;6.70;3.80;;;6.00;83.30;;;;;;5087003;28;20059;-76
2021/10/23 06:14:35;;;;;;;7.97;4.05;;;6.00;83.30;;;;;;5085389;28;20027;-76
2021/10/23 06:17:01;;;;;;;5.38;3.17;;;5.90;83.30;;;;;;5092779;28;20016;-76
2021/10/23 06:19:26;;;;;;;6.97;3.20;;;5.90;83.30;;;;;;5079564;28;20025;-76
2021/10/23 06:21:52;;;;;;;6.40;3.38;;;5.90;83.30;;;;;;5079007;28;20096;-77
2021/10/23 06:24:18;;;;;;;6.60;3.45;;;5.90;83.30;;;;;;5089204;28;20487;-77
2021/10/23 06:26:44;;;;;;;4.65;3.05;;;5.80;83.30;;;;;;5093819;28;20020;-76
2021/10/23 06:29:09;;;;;;;5.65;3.30;;;5.80;83.30;;;;;;5079370;28;20071;-76
2021/10/23 06:31:35;;;;;;;8.65;3.40;;;5.80;83.30;;;;;;5083486;28;20433;-76
2021/10/23 06:34:01;;;;;;;5.88;3.17;;;5.70;83.30;;;;;;5099396;28;20024;-76
2021/10/23 06:36:27;;;;;;;9.23;4.53;;;5.70;83.40;;;;;;5079259;28;20431;-76
2021/10/23 06:38:53;;;;;;;4.60;3.17;;;5.70;83.40;;;;;;5079099;28;20035;-76
2021/10/23 06:41:18;;;;;;;4.97;3.25;;;5.70;83.50;;;;;;5078757;28;20028;-76
2021/10/23 06:43:44;;;;;;;7.43;3.90;;;5.60;83.40;;;;;;5079050;28;20108;-77
2021/10/23 06:46:10;;;;;;;7.07;3.95;;;5.60;83.50;;;;;;5079013;28;20421;-76
2021/10/23 06:48:36;;;;;;;7.13;4.20;;;5.60;83.40;;;;;;5078824;28;20035;-76
2021/10/23 06:51:02;;;;;;;5.63;3.45;;;5.60;83.50;;;;;;5077223;28;20074;-76
2021/10/23 06:53:28;;;;;;;5.25;3.53;;;5.60;83.40;;;;;;5078906;28;20430;-77
2021/10/23 06:55:53;;;;;;;7.25;3.20;;;5.60;83.60;;;;;;5078513;28;20506;-80
2021/10/23 06:58:19;;;;;;;5.45;3.28;;;5.60;83.60;;;;;;5090447;28;20099;-80
2021/10/23 07:00:45;;;;;;;6.10;3.15;;;5.60;83.60;;;;;;5078445;28;20075;-79
2021/10/23 07:03:11;;;;;;;6.68;3.70;;;5.60;83.70;;;;;;5086714;28;20521;-81
2021/10/23 07:05:37;;;;;;;6.30;3.15;;;5.60;83.70;;;;;;5094352;28;20024;-80
2021/10/23 07:08:06;;;;;;;5.18;3.00;;;5.60;83.60;;;;;;5095810;28;20022;-78
2021/10/23 07:10:33;;;;;;;7.10;3.83;;;5.60;83.70;;;;;;5086159;28;20030;-77
2021/10/23 07:12:58;;;;;;;9.20;5.30;;;5.60;83.70;;;;;;5080647;28;20031;-77
2021/10/23 07:15:24;;;;;;;7.53;4.90;;;5.60;83.90;;;;;;5090066;28;20115;-75
2021/10/23 07:17:50;;;;;;;10.32;5.97;;;5.60;84.00;;;;;;5076969;28;21088;-76
2021/10/23 07:20:16;;;;;;;11.57;7.00;;;5.60;84.10;;;;;;5076388;28;20027;-75
2021/10/23 07:22:42;;;;;;;12.95;7.55;;;5.70;84.10;;;;;;5078093;28;20017;-74
2021/10/23 07:25:08;;;;;;;10.65;6.45;;;5.70;84.20;;;;;;5092530;28;20064;-75
2021/10/23 07:27:34;;;;;;;12.07;6.82;;;5.70;84.10;;;;;;5078235;28;20024;-75
2021/10/23 07:30:01;;;;;;;10.10;5.95;;;5.70;84.10;;;;;;5077966;28;20084;-76
2021/10/23 07:32:27;;;;;;;7.88;5.07;;;5.70;84.10;;;;;;5089598;28;20567;-74
2021/10/23 07:34:53;;;;;;;16.65;9.63;;;5.70;84.00;;;;;;5095309;28;20103;-77
2021/10/23 07:37:19;;;;;;;20.40;10.98;;;5.80;84.10;;;;;;5077750;28;20044;-75
2021/10/23 07:39:45;;;;;;;16.75;9.77;;;5.80;84.00;;;;;;5077549;28;20028;-77
2021/10/23 07:42:10;;;;;;;16.33;9.68;;;5.80;83.80;;;;;;5077900;28;20028;-85
2021/10/23 07:44:36;;;;;;;12.23;7.45;;;5.80;83.70;;;;;;5077613;28;20032;-78
2021/10/23 07:47:03;;;;;;;13.50;7.20;;;5.90;83.90;;;;;;5077846;28;20029;-83
2021/10/23 07:49:28;;;;;;;8.93;6.00;;;5.90;83.80;;;;;;5077524;28;20490;-83
2021/10/23 07:51:54;;;;;;;10.93;5.75;;;5.90;83.80;;;;;;5077755;28;20056;-78
2021/10/23 07:54:20;;;;;;;8.00;4.75;;;5.90;83.80;;;;;;5077282;28;20115;-77
2021/10/23 07:56:46;;;;;;;9.07;5.32;;;6.00;83.90;;;;;;5077715;28;20028;-79
2021/10/23 07:59:14;;;;;;;8.38;5.43;;;6.00;83.80;;;;;;5077359;28;20107;-80
2021/10/23 08:01:40;;;;;;;8.93;5.07;;;6.10;83.90;;;;;;5077642;28;20066;-77
2021/10/23 08:04:06;;;;;;;10.32;4.72;;;6.10;83.60;;;;;;5077343;28;20084;-77
2021/10/23 08:06:32;;;;;;;8.40;4.80;;;6.20;83.60;;;;;;5077379;28;20052;-81
2021/10/23 08:08:57;;;;;;;8.02;4.85;;;6.20;83.70;;;;;;5077292;28;20024;-76
2021/10/23 08:11:23;;;;;;;22.27;11.25;;;6.20;83.50;;;;;;5077251;28;20020;-76
2021/10/23 08:13:50;;;;;;;17.13;10.00;;;6.30;83.70;;;;;;5090722;28;20042;-79
2021/10/23 08:16:15;;;;;;;13.93;9.13;;;6.30;83.70;;;;;;5077453;28;20020;-78
2021/10/23 08:18:41;;;;;;;13.10;8.27;;;6.40;83.80;;;;;;5075822;28;20043;-74
2021/10/23 08:21:07;;;;;;;12.77;7.07;;;6.40;83.90;;;;;;5077201;28;20515;-79
2021/10/23 08:23:33;;;;;;;10.32;7.03;;;6.50;83.90;;;;;;5080974;28;20016;-78
2021/10/23 08:25:59;;;;;;;11.05;6.30;;;6.50;84.00;;;;;;5090628;28;20556;-75
2021/10/23 08:28:24;;;;;;;9.07;5.97;;;6.60;83.90;;;;;;5077178;28;20020;-75
2021/10/23 08:30:51;;;;;;;8.43;5.32;;;6.60;84.00;;;;;;5077274;28;20028;-75
2021/10/23 08:33:17;;;;;;;8.13;5.20;;;6.70;84.10;;;;;;5095682;28;20035;-74
2021/10/23 08:35:43;;;;;;;8.23;5.00;;;6.70;84.10;;;;;;5089799;28;20020;-75
2021/10/23 08:38:09;;;;;;;9.63;6.20;;;6.80;84.20;;;;;;5076963;28;20532;-75
2021/10/23 08:40:35;;;;;;;11.20;6.90;;;6.90;84.60;;;;;;5077118;28;20043;-74
2021/10/23 08:43:04;;;;;;;13.38;8.65;;;7.10;85.50;;;;;;5077000;28;20042;-75
2021/10/23 08:45:30;;;;;;;13.43;8.57;;;7.30;86.40;;;;;;5077399;28;20103;-74
2021/10/23 08:47:58;;;;;;;17.92;9.48;;;7.60;86.90;;;;;;5076961;28;20086;-74
2021/10/23 08:50:24;;;;;;;13.25;8.35;;;7.90;86.70;;;;;;5076898;28;20360;-75
2021/10/23 08:53:00;;;;;;;13.60;8.45;;;8.10;86.80;;;;;;5076757;28;20162;-77
2021/10/23 08:55:27;;;;;;;12.70;7.72;;;8.30;87.00;;;;;;5075553;28;20104;-76
2021/10/23 08:57:53;;;;;;;12.25;7.30;;;8.40;87.00;;;;;;5076279;28;20017;-75
2021/10/23 09:00:20;;;;;;;12.18;7.72;;;8.50;87.10;;;;;;5075999;28;20434;-76
2021/10/23 09:02:48;;;;;;;13.65;8.70;;;8.60;87.50;;;;;;5075562;28;20028;-76
2021/10/23 09:05:15;;;;;;;14.27;7.82;;;8.80;87.90;;;;;;5076695;28;20016;-76
2021/10/23 09:07:43;;;;;;;13.85;6.47;;;9.00;88.30;;;;;;5076035;28;20025;-76
2021/10/23 09:10:09;;;;;;;11.30;6.90;;;9.10;88.40;;;;;;5076621;28;20020;-75
2021/10/23 09:12:37;;;;;;;11.32;6.75;;;9.30;88.50;;;;;;5079667;28;20053;-75
2021/10/23 09:15:06;;;;;;;12.13;6.60;;;9.50;88.80;;;;;;5086757;28;20032;-75
2021/10/23 09:17:33;;;;;;;13.88;6.68;;;9.70;89.00;;;;;;5076807;28;20028;-75
2021/10/23 09:20:09;;;;;;;10.13;6.32;;;10.00;89.20;;;;;;5076713;28;20058;-75
2021/10/23 09:22:38;;;;;;;9.52;5.85;;;10.30;89.80;;;;;;5076668;28;20105;-75
2021/10/23 09:25:27;;;;;;;9.95;5.72;;;10.70;90.00;;;;;;5091843;28;20017;-75
2021/10/23 09:28:02;;;;;;;11.77;5.90;;;11.00;89.50;;;;;;5087093;28;20029;-75
2021/10/23 09:30:31;;;;;;;12.25;5.32;;;11.20;88.80;;;;;;5080039;28;20029;-75
2021/10/23 09:33:19;;;;;;;12.93;6.22;;;11.40;89.00;;;;;;5096150;28;20024;-75
2021/10/23 09:35:52;;;;;;;11.30;5.30;;;11.70;89.00;;;;;;5088061;28;20550;-75
2021/10/23 09:38:21;;;;;;;10.38;5.50;;;12.00;88.50;;;;;;5084751;28;20415;-74
2021/10/23 09:40:53;;;;;;;11.82;4.55;;;12.40;89.00;;;;;;5089622;28;20031;-74
2021/10/23 09:43:22;;;;;;;8.45;4.13;;;12.90;89.20;;;;;;5093007;28;20031;-73
2021/10/23 09:45:57;;;;;;;10.40;4.45;;;13.30;88.10;;;;;;5078994;28;20032;-76
2021/10/23 09:48:31;;;;;;;8.18;4.35;;;13.70;87.10;;;;;;5076654;28;20112;-75
2021/10/23 09:51:22;;;;;;;8.90;4.15;;;14.10;86.10;;;;;;5078142;28;20035;-75
2021/10/23 09:53:53;;;;;;;8.55;4.60;;;14.60;86.30;;;;;;5078941;28;20024;-77
2021/10/23 09:56:29;;;;;;;7.13;4.03;;;15.10;86.30;;;;;;5079735;28;20017;-76
2021/10/23 09:58:59;;;;;;;9.80;4.80;;;15.80;84.70;;;;;;5078913;28;20025;-76
2021/10/23 10:01:33;;;;;;;7.13;4.60;;;16.50;82.80;;;;;;5078568;28;20021;-76
2021/10/23 10:04:06;;;;;;;13.32;8.10;;;17.10;80.80;;;;;;5079683;28;20032;-77
2021/10/23 10:06:34;;;;;;;10.38;5.65;;;17.60;79.10;;;;;;5079541;28;20467;-76
2021/10/23 10:09:00;;;;;;;9.73;4.50;;;18.10;77.40;;;;;;5079512;28;20012;-79
2021/10/23 10:11:26;;;;;;;9.15;4.80;;;18.50;75.90;;;;;;5078329;28;20052;-80
2021/10/23 10:13:52;;;;;;;10.13;4.68;;;18.90;75.90;;;;;;5093021;28;20020;-82
2021/10/23 10:16:18;;;;;;;6.90;3.67;;;19.40;74.00;;;;;;5079713;28;20032;-80
2021/10/23 10:18:46;;;;;;;7.18;3.88;;;19.70;72.40;;;;;;5079557;28;20028;-82
2021/10/23 10:21:14;;;;;;;9.35;4.05;;;20.10;71.70;;;;;;5079234;28;20463;-79
2021/10/23 10:23:42;;;;;;;11.02;4.45;;;20.30;69.90;;;;;;5085139;28;20016;-79
2021/10/23 10:26:28;;;;;;;9.32;4.22;;;20.60;68.30;;;;;;5091824;28;20025;-80
2021/10/23 10:29:11;;;;;;;9.02;4.60;;;20.90;68.50;;;;;;5079164;28;20029;-79
2021/10/23 10:32:42;;;;;;;;;;;21.20;66.90;;;;;;5084572;28;20398;-79
2021/10/23 10:37:39;;;;;;;7.07;3.60;;;21.80;66.40;;;;;;5079925;28;20534;-78
2021/10/23 10:42:51;;;;;;;5.95;3.20;;;22.10;59.50;;;;;;5078051;28;20475;-79
2021/10/23 10:45:41;;;;;;;6.95;3.35;;;22.20;60.20;;;;;;5078771;28;20100;-79
2021/10/23 10:48:29;;;;;;;8.73;3.10;;;22.40;61.00;;;;;;5078884;28;20028;-79
2021/10/23 10:51:06;;;;;;;7.75;3.38;;;22.60;60.90;;;;;;5078597;28;20120;-78
2021/10/23 10:53:34;;;;;;;15.60;10.35;;;22.70;60.00;;;;;;5081519;28;20031;-78
2021/10/23 10:56:03;;;;;;;12.55;7.50;;;22.90;61.10;;;;;;5092361;28;20036;-78
2021/10/23 10:58:49;;;;;;;14.88;8.43;;;23.10;59.00;;;;;;5077706;28;20025;-78
2021/10/23 11:01:21;;;;;;;10.43;4.88;;;23.30;58.00;;;;;;5078600;28;20022;-77
2021/10/23 11:03:52;;;;;;;6.90;2.97;;;23.50;58.60;;;;;;5078590;28;20494;-81
2021/10/23 11:09:11;;;;;;;7.20;3.40;;;23.80;56.20;;;;;;5078322;28;20025;-78
2021/10/23 11:14:23;;;;;;;10.30;5.22;;;24.00;54.80;;;;;;5091644;28;20025;-77
2021/10/23 11:16:55;;;;;;;7.15;2.90;;;24.00;54.20;;;;;;5078446;28;20059;-78
2021/10/23 11:19:29;;;;;;;11.82;3.35;;;23.80;53.40;;;;;;5078121;28;20032;-78
2021/10/23 11:21:59;;;;;;;9.00;3.50;;;23.30;53.90;;;;;;5076725;28;20035;-77
2021/10/23 11:24:26;;;;;;;12.15;5.30;;;22.70;53.70;;;;;;5089146;28;20024;-79
2021/10/23 11:26:53;;;;;;;9.70;4.28;;;22.20;54.20;;;;;;5083553;28;20162;-81
2021/10/23 11:29:21;;;;;;;10.10;3.70;;;21.90;55.00;;;;;;5078365;28;20040;-76
2021/10/23 11:31:52;;;;;;;8.23;3.00;;;21.40;55.00;;;;;;5084063;28;20077;-81
2021/10/23 11:34:31;;;;;;;5.90;3.22;;;21.10;55.30;;;;;;5089247;28;20025;-83
2021/10/23 11:37:04;;;;;;;14.23;6.60;;;20.80;56.00;;;;;;5091059;28;20052;-89
2021/10/23 11:39:37;;;;;;;7.55;2.78;;;20.50;55.90;;;;;;5077860;28;20021;-86
2021/10/23 11:42:33;;;;;;;5.10;2.20;;;20.30;55.50;;;;;;5077662;28;20033;-87
2021/10/23 11:45:03;;;;;;;5.03;2.03;;;20.20;56.50;;;;;;5077662;28;20024;-89
2021/10/23 11:47:30;;;;;;;5.88;2.03;;;20.00;56.50;;;;;;5077754;28;20024;-82
2021/10/23 11:50:06;;;;;;;6.70;1.90;;;19.80;56.20;;;;;;5077387;28;20020;-85
2021/10/23 11:52:33;;;;;;;6.13;2.33;;;19.70;57.00;;;;;;5076203;28;20029;-87
2021/10/23 11:55:01;;;;;;;7.32;1.73;;;19.60;56.70;;;;;;5077274;28;20103;-85
2021/10/23 11:57:39;;;;;;;4.93;1.98;;;19.50;56.60;;;;;;5077554;28;20028;-78
2021/10/23 12:00:16;;;;;;;6.18;1.80;;;19.40;56.70;;;;;;5077862;28;20454;-74
2021/10/23 12:03:04;;;;;;;5.63;2.00;;;19.50;57.10;;;;;;5077471;28;20482;-75
2021/10/23 12:05:38;;;;;;;6.82;1.88;;;19.70;56.80;;;;;;5077238;28;20108;-78
2021/10/23 12:08:24;;;;;;;5.38;1.85;;;19.90;55.90;;;;;;5085431;28;20493;-76
2021/10/23 12:11:07;;;;;;;7.30;2.10;;;20.00;56.10;;;;;;5078733;28;20028;-78
2021/10/23 12:14:02;;;;;;;3.17;1.73;;;20.00;55.90;;;;;;5087650;28;20024;-76
2021/10/23 12:16:33;;;;;;;4.80;1.67;;;19.90;54.60;;;;;;5086455;28;20020;-76
2021/10/23 12:19:31;;;;;;;6.35;1.90;;;19.70;54.50;;;;;;5081197;28;20116;-77
2021/10/23 12:22:16;;;;;;;82.13;45.75;;;19.60;56.00;;;;;;5077275;28;20028;-75
2021/10/23 12:24:43;;;;;;;46.33;25.65;;;19.70;56.70;;;;;;5090431;28;20024;-77
2021/10/23 12:27:23;;;;;;;27.00;16.42;;;19.90;57.60;;;;;;5080033;28;20028;-74
2021/10/23 12:30:02;;;;;;;11.77;4.15;;;19.90;56.70;;;;;;5077416;28;20024;-76
2021/10/23 12:32:37;;;;;;;5.53;2.30;;;20.00;56.30;;;;;;5088943;28;20078;-75
2021/10/23 12:35:20;;;;;;;6.03;2.53;;;20.10;57.00;;;;;;5094596;28;20119;-74
2021/10/23 12:38:00;;;;;;;5.93;2.20;;;20.20;56.20;;;;;;5076189;28;20049;-75
2021/10/23 12:40:39;;;;;;;9.80;2.63;;;20.00;56.50;;;;;;5084152;28;20032;-75
2021/10/23 12:43:14;;;;;;;6.97;2.40;;;20.00;56.60;;;;;;5081898;28;20020;-75
2021/10/23 12:45:41;;;;;;;6.65;2.63;;;19.90;56.20;;;;;;5077203;28;20028;-75
2021/10/23 12:48:10;;;;;;;7.20;2.97;;;19.90;56.70;;;;;;5077120;28;20016;-75
2021/10/23 12:50:37;;;;;;;7.68;2.90;;;19.80;56.40;;;;;;5076863;28;20029;-75
2021/10/23 12:53:03;;;;;;;7.13;3.08;;;19.70;57.50;;;;;;5076866;28;20395;-75
2021/10/23 12:55:29;;;;;;;5.82;2.55;;;19.70;56.70;;;;;;5076898;28;20027;-75
2021/10/23 12:57:56;;;;;;;7.50;2.95;;;19.70;56.70;;;;;;5077009;28;20033;-74
2021/10/23 13:00:23;;;;;;;9.90;3.42;;;19.60;56.60;;;;;;5077028;28;20017;-75
2021/10/23 13:02:49;;;;;;;4.28;2.42;;;19.60;56.50;;;;;;5076749;28;20572;-75
2021/10/23 13:05:15;;;;;;;7.20;3.15;;;19.50;56.50;;;;;;5077447;28;20020;-75
2021/10/23 13:07:41;;;;;;;7.10;2.92;;;19.40;57.00;;;;;;5080679;28;20074;-75
2021/10/23 13:10:08;;;;;;;5.80;2.83;;;19.30;56.90;;;;;;5080859;28;20027;-75